KMVN/MVN METAR and TAF weather

Enter ICAO airport designator
Station Type Date Time Source
KMVN METAR 2020/04/04 06:27 UTC NOAA

KMVN 040627Z AUTO VRB05KT 10SM BKN014 11/08 A3005 RMK AO2


Station Type Date Time Source
KMVN Decoded METAR 2020/04/04 06:27 UTC NOAA

Mount Vernon, Mount Vernon Airport, IL, United States (KMVN) 38-19N 088-52W
Apr 04, 2020 - 02:27 AM EDT / 2020.04.04 0627 UTC
Wind: Variable at 6 MPH (5 KT):0
Visibility: 10 mile(s):0
Sky conditions: mostly cloudy
Temperature: 51 F (11 C)
Dew Point: 46 F (8 C)
Relative Humidity: 81%
Pressure (altimeter): 30.05 in. Hg (1017 hPa)
ob: KMVN 040627Z AUTO VRB05KT 10SM BKN014 11/08 A3005 RMK AO2
cycle: 6

Station Type Date Time Source
KMVN TAF 2020/04/04 06:21 UTC NOAA

TAF KMVN 040520Z 0406/0506 VRB04KT P6SM FEW050 BKN080
TEMPO 0406/0408 SCT007 BKN015
FM040800 35007KT P6SM VCSH SCT009 BKN012
FM041600 36009KT P6SM BKN019
FM042100 36007KT P6SM BKN025

Example: see airport list